sensor_id;sensor_type;location;lat;lon;timestamp;temperature;humidity
6556;DHT22;3311;48.32423000;14.29074500;2022-07-03T06:15:47;24.30;57.20
6556;DHT22;3311;48.32423000;14.29074500;2022-07-03T06:18:14;24.30;57.50
6556;DHT22;3311;48.32423000;14.29074500;2022-07-03T06:20:42;24.40;57.50
6556;DHT22;3311;48.32423000;14.29074500;2022-07-03T06:23:09;24.30;58.10
6556;DHT22;3311;48.32423000;14.29074500;2022-07-03T06:25:36;24.40;57.50
6556;DHT22;3311;48.32423000;14.29074500;2022-07-03T06:28:04;24.60;57.30
6556;DHT22;3311;48.32423000;14.29074500;2022-07-03T06:30:31;24.60;57.40
6556;DHT22;3311;48.32423000;14.29074500;2022-07-03T06:32:59;24.70;57.10
6556;DHT22;3311;48.32423000;14.29074500;2022-07-03T06:35:27;24.60;57.20
6556;DHT22;3311;48.32423000;14.29074500;2022-07-03T06:37:54;24.60;57.40
6556;DHT22;3311;48.32423000;14.29074500;2022-07-03T06:40:21;24.60;57.20
6556;DHT22;3311;48.32423000;14.29074500;2022-07-03T06:42:49;24.50;57.20
6556;DHT22;3311;48.32423000;14.29074500;2022-07-03T06:45:16;24.50;57.20
6556;DHT22;3311;48.32423000;14.29074500;2022-07-03T06:47:43;24.50;57.10
6556;DHT22;3311;48.32423000;14.29074500;2022-07-03T06:50:12;24.60;57.50
6556;DHT22;3311;48.32423000;14.29074500;2022-07-03T06:52:39;24.60;57.50
6556;DHT22;3311;48.32423000;14.29074500;2022-07-03T06:55:07;24.60;57.40
6556;DHT22;3311;48.32423000;14.29074500;2022-07-03T06:57:35;24.60;57.50
6556;DHT22;3311;48.32423000;14.29074500;2022-07-03T07:00:03;24.60;57.60
6556;DHT22;3311;48.32423000;14.29074500;2022-07-03T07:02:31;24.60;57.90
6556;DHT22;3311;48.32423000;14.29074500;2022-07-03T07:04:58;24.60;57.20
6556;DHT22;3311;48.32423000;14.29074500;2022-07-03T07:07:27;24.60;57.40
6556;DHT22;3311;48.32423000;14.29074500;2022-07-03T07:09:54;24.60;57.40
6556;DHT22;3311;48.32423000;14.29074500;2022-07-03T07:12:21;24.50;57.50
6556;DHT22;3311;48.32423000;14.29074500;2022-07-03T07:14:48;24.50;57.50
6556;DHT22;3311;48.32423000;14.29074500;2022-07-03T07:17:16;24.40;57.60
6556;DHT22;3311;48.32423000;14.29074500;2022-07-03T07:19:43;24.40;57.70
6556;DHT22;3311;48.32423000;14.29074500;2022-07-03T07:22:10;24.40;57.50
6556;DHT22;3311;48.32423000;14.29074500;2022-07-03T07:24:39;24.30;57.60
6556;DHT22;3311;48.32423000;14.29074500;2022-07-03T07:27:06;24.30;57.70
6556;DHT22;3311;48.32423000;14.29074500;2022-07-03T07:29:33;24.40;58.00
6556;DHT22;3311;48.32423000;14.29074500;2022-07-03T07:32:01;24.40;57.80
6556;DHT22;3311;48.32423000;14.29074500;2022-07-03T07:34:28;24.40;58.00
6556;DHT22;3311;48.32423000;14.29074500;2022-07-03T07:36:55;24.40;57.50
6556;DHT22;3311;48.32423000;14.29074500;2022-07-03T07:39:23;24.50;57.60
6556;DHT22;3311;48.32423000;14.29074500;2022-07-03T07:41:53;24.60;57.40
6556;DHT22;3311;48.32423000;14.29074500;2022-07-03T07:44:20;24.80;57.40
6556;DHT22;3311;48.32423000;14.29074500;2022-07-03T07:46:48;24.80;57.30
6556;DHT22;3311;48.32423000;14.29074500;2022-07-03T07:49:16;24.90;57.10
6556;DHT22;3311;48.32423000;14.29074500;2022-07-03T07:51:43;25.00;57.00
6556;DHT22;3311;48.32423000;14.29074500;2022-07-03T07:54:10;25.20;56.90
6556;DHT22;3311;48.32423000;14.29074500;2022-07-03T07:56:37;25.40;56.40
6556;DHT22;3311;48.32423000;14.29074500;2022-07-03T07:59:06;25.50;56.30
6556;DHT22;3311;48.32423000;14.29074500;2022-07-03T08:01:33;25.70;56.20
6556;DHT22;3311;48.32423000;14.29074500;2022-07-03T08:04:14;26.00;55.80
6556;DHT22;3311;48.32423000;14.29074500;2022-07-03T08:06:59;26.30;55.20
6556;DHT22;3311;48.32423000;14.29074500;2022-07-03T08:09:26;26.60;54.50
6556;DHT22;3311;48.32423000;14.29074500;2022-07-03T08:11:54;26.70;54.20
6556;DHT22;3311;48.32423000;14.29074500;2022-07-03T08:14:22;26.90;53.90
6556;DHT22;3311;48.32423000;14.29074500;2022-07-03T08:16:51;27.00;53.20
6556;DHT22;3311;48.32423000;14.29074500;2022-07-03T08:19:18;27.00;53.10
6556;DHT22;3311;48.32423000;14.29074500;2022-07-03T08:21:45;26.90;52.50
6556;DHT22;3311;48.32423000;14.29074500;2022-07-03T08:24:13;26.80;51.90
6556;DHT22;3311;48.32423000;14.29074500;2022-07-03T08:26:42;26.00;53.70
6556;DHT22;3311;48.32423000;14.29074500;2022-07-03T08:29:09;25.80;53.90
6556;DHT22;3311;48.32423000;14.29074500;2022-07-03T08:31:38;26.00;53.20
6556;DHT22;3311;48.32423000;14.29074500;2022-07-03T08:34:06;26.10;53.30
6556;DHT22;3311;48.32423000;14.29074500;2022-07-03T08:36:34;26.00;52.70
6556;DHT22;3311;48.32423000;14.29074500;2022-07-03T08:39:01;26.00;53.20
6556;DHT22;3311;48.32423000;14.29074500;2022-07-03T08:41:28;26.00;52.70
6556;DHT22;3311;48.32423000;14.29074500;2022-07-03T08:43:57;26.00;53.30
6556;DHT22;3311;48.32423000;14.29074500;2022-07-03T08:46:26;26.00;53.50
6556;DHT22;3311;48.32423000;14.29074500;2022-07-03T16:51:57;24.80;61.70
6556;DHT22;3311;48.32423000;14.29074500;2022-07-03T16:54:30;24.80;61.80
6556;DHT22;3311;48.32423000;14.29074500;2022-07-03T16:57:02;24.80;61.80
6556;DHT22;3311;48.32423000;14.29074500;2022-07-03T16:59:30;24.80;61.80
6556;DHT22;3311;48.32423000;14.29074500;2022-07-03T17:01:58;24.80;61.80
6556;DHT22;3311;48.32423000;14.29074500;2022-07-03T17:04:28;24.80;61.80
6556;DHT22;3311;48.32423000;14.29074500;2022-07-03T17:06:58;24.80;61.80
6556;DHT22;3311;48.32423000;14.29074500;2022-07-03T17:09:26;24.80;61.80
6556;DHT22;3311;48.32423000;14.29074500;2022-07-03T17:11:54;24.80;61.90
6556;DHT22;3311;48.32423000;14.29074500;2022-07-03T17:14:22;24.80;62.00
6556;DHT22;3311;48.32423000;14.29074500;2022-07-03T17:16:55;24.80;61.90
6556;DHT22;3311;48.32423000;14.29074500;2022-07-03T17:19:24;24.80;62.00
6556;DHT22;3311;48.32423000;14.29074500;2022-07-03T17:21:53;24.80;62.00
6556;DHT22;3311;48.32423000;14.29074500;2022-07-03T17:24:28;24.80;62.00
6556;DHT22;3311;48.32423000;14.29074500;2022-07-03T17:27:02;24.80;62.20
6556;DHT22;3311;48.32423000;14.29074500;2022-07-03T17:29:39;24.80;62.20
6556;DHT22;3311;48.32423000;14.29074500;2022-07-03T17:32:12;24.80;62.30
6556;DHT22;3311;48.32423000;14.29074500;2022-07-03T17:34:42;24.80;62.30
6556;DHT22;3311;48.32423000;14.29074500;2022-07-03T17:37:10;24.80;62.30
6556;DHT22;3311;48.32423000;14.29074500;2022-07-03T17:39:42;24.80;62.40
6556;DHT22;3311;48.32423000;14.29074500;2022-07-03T17:42:14;24.80;62.50
6556;DHT22;3311;48.32423000;14.29074500;2022-07-03T17:44:46;24.80;62.60
6556;DHT22;3311;48.32423000;14.29074500;2022-07-03T17:47:16;24.80;62.70
6556;DHT22;3311;48.32423000;14.29074500;2022-07-03T17:49:44;24.80;62.70
6556;DHT22;3311;48.32423000;14.29074500;2022-07-03T17:52:14;24.80;62.70
6556;DHT22;3311;48.32423000;14.29074500;2022-07-03T17:54:47;24.80;62.70
6556;DHT22;3311;48.32423000;14.29074500;2022-07-03T17:57:16;24.80;62.70
6556;DHT22;3311;48.32423000;14.29074500;2022-07-03T17:59:58;24.80;62.90
6556;DHT22;3311;48.32423000;14.29074500;2022-07-03T18:02:25;24.80;62.90
6556;DHT22;3311;48.32423000;14.29074500;2022-07-03T18:04:55;24.80;62.90
6556;DHT22;3311;48.32423000;14.29074500;2022-07-03T18:07:30;24.80;63.10
6556;DHT22;3311;48.32423000;14.29074500;2022-07-03T18:10:04;24.80;63.10
6556;DHT22;3311;48.32423000;14.29074500;2022-07-03T18:12:38;24.80;63.20
6556;DHT22;3311;48.32423000;14.29074500;2022-07-03T18:15:16;24.80;63.20
6556;DHT22;3311;48.32423000;14.29074500;2022-07-03T18:17:51;24.80;63.30
6556;DHT22;3311;48.32423000;14.29074500;2022-07-03T18:20:20;24.80;63.40
6556;DHT22;3311;48.32423000;14.29074500;2022-07-03T18:22:51;24.80;63.50
6556;DHT22;3311;48.32423000;14.29074500;2022-07-03T18:25:24;24.80;65.50
6556;DHT22;3311;48.32423000;14.29074500;2022-07-03T18:27:56;24.80;65.00
6556;DHT22;3311;48.32423000;14.29074500;2022-07-03T18:30:25;24.80;66.00
6556;DHT22;3311;48.32423000;14.29074500;2022-07-03T18:32:53;24.80;67.60
6556;DHT22;3311;48.32423000;14.29074500;2022-07-03T18:35:21;24.80;67.50
6556;DHT22;3311;48.32423000;14.29074500;2022-07-03T18:37:48;24.70;67.40
6556;DHT22;3311;48.32423000;14.29074500;2022-07-03T18:40:19;24.70;67.10
6556;DHT22;3311;48.32423000;14.29074500;2022-07-03T18:42:49;24.70;67.90
6556;DHT22;3311;48.32423000;14.29074500;2022-07-03T18:45:18;24.70;68.10
6556;DHT22;3311;48.32423000;14.29074500;2022-07-03T18:47:48;24.70;68.00
6556;DHT22;3311;48.32423000;14.29074500;2022-07-03T18:50:17;24.60;68.40
6556;DHT22;3311;48.32423000;14.29074500;2022-07-03T18:52:51;24.70;68.30
6556;DHT22;3311;48.32423000;14.29074500;2022-07-03T18:55:26;24.70;68.60
6556;DHT22;3311;48.32423000;14.29074500;2022-07-03T18:58:05;24.60;68.20
6556;DHT22;3311;48.32423000;14.29074500;2022-07-03T19:00:35;24.70;68.40
6556;DHT22;3311;48.32423000;14.29074500;2022-07-03T19:03:10;24.70;68.30
6556;DHT22;3311;48.32423000;14.29074500;2022-07-03T19:05:45;24.70;68.50
6556;DHT22;3311;48.32423000;14.29074500;2022-07-03T19:08:19;24.70;68.60
6556;DHT22;3311;48.32423000;14.29074500;2022-07-03T19:10:50;24.60;68.40
6556;DHT22;3311;48.32423000;14.29074500;2022-07-03T19:13:25;24.70;68.60
6556;DHT22;3311;48.32423000;14.29074500;2022-07-03T19:15:57;24.60;68.10
6556;DHT22;3311;48.32423000;14.29074500;2022-07-03T19:18:24;24.70;68.30
6556;DHT22;3311;48.32423000;14.29074500;2022-07-03T19:20:51;24.70;68.30
6556;DHT22;3311;48.32423000;14.29074500;2022-07-03T19:23:19;24.60;68.40
6556;DHT22;3311;48.32423000;14.29074500;2022-07-03T19:25:47;24.60;68.40
6556;DHT22;3311;48.32423000;14.29074500;2022-07-03T19:28:14;24.60;68.40
6556;DHT22;3311;48.32423000;14.29074500;2022-07-03T19:30:46;24.70;68.60
6556;DHT22;3311;48.32423000;14.29074500;2022-07-03T19:33:14;24.60;68.30
6556;DHT22;3311;48.32423000;14.29074500;2022-07-03T19:35:41;24.60;68.40
6556;DHT22;3311;48.32423000;14.29074500;2022-07-03T19:38:09;24.60;68.40
6556;DHT22;3311;48.32423000;14.29074500;2022-07-03T19:40:37;24.60;68.40
6556;DHT22;3311;48.32423000;14.29074500;2022-07-03T19:43:04;24.60;68.40
6556;DHT22;3311;48.32423000;14.29074500;2022-07-03T19:45:33;24.60;68.10
6556;DHT22;3311;48.32423000;14.29074500;2022-07-03T19:48:03;24.60;68.00
6556;DHT22;3311;48.32423000;14.29074500;2022-07-03T19:50:31;24.60;68.10
6556;DHT22;3311;48.32423000;14.29074500;2022-07-03T19:52:58;24.60;68.20
6556;DHT22;3311;48.32423000;14.29074500;2022-07-03T19:55:26;24.60;67.50
6556;DHT22;3311;48.32423000;14.29074500;2022-07-03T19:57:53;24.60;68.20
6556;DHT22;3311;48.32423000;14.29074500;2022-07-03T20:00:20;24.60;67.70
6556;DHT22;3311;48.32423000;14.29074500;2022-07-03T20:02:54;24.60;67.50
6556;DHT22;3311;48.32423000;14.29074500;2022-07-03T20:05:28;24.60;67.50
6556;DHT22;3311;48.32423000;14.29074500;2022-07-03T20:07:56;24.60;67.40
6556;DHT22;3311;48.32423000;14.29074500;2022-07-03T20:10:26;24.60;67.70
6556;DHT22;3311;48.32423000;14.29074500;2022-07-03T20:12:54;24.60;67.70
6556;DHT22;3311;48.32423000;14.29074500;2022-07-03T20:15:22;24.50;67.50
6556;DHT22;3311;48.32423000;14.29074500;2022-07-03T20:17:49;24.60;67.60
6556;DHT22;3311;48.32423000;14.29074500;2022-07-03T20:20:20;24.50;67.60
6556;DHT22;3311;48.32423000;14.29074500;2022-07-03T20:22:53;24.50;67.20
6556;DHT22;3311;48.32423000;14.29074500;2022-07-03T20:25:21;24.50;67.40
6556;DHT22;3311;48.32423000;14.29074500;2022-07-03T20:27:50;24.40;67.10
6556;DHT22;3311;48.32423000;14.29074500;2022-07-03T20:30:17;24.40;67.20
6556;DHT22;3311;48.32423000;14.29074500;2022-07-03T20:32:45;24.40;67.00
6556;DHT22;3311;48.32423000;14.29074500;2022-07-03T20:35:15;24.40;67.20
6556;DHT22;3311;48.32423000;14.29074500;2022-07-03T20:37:42;24.40;67.00
6556;DHT22;3311;48.32423000;14.29074500;2022-07-03T20:40:12;24.50;67.10
6556;DHT22;3311;48.32423000;14.29074500;2022-07-03T20:42:40;24.40;66.80
6556;DHT22;3311;48.32423000;14.29074500;2022-07-03T20:45:09;24.40;67.10
6556;DHT22;3311;48.32423000;14.29074500;2022-07-03T20:47:37;24.40;66.90
6556;DHT22;3311;48.32423000;14.29074500;2022-07-03T20:50:05;24.40;66.80
6556;DHT22;3311;48.32423000;14.29074500;2022-07-03T20:52:33;24.40;66.70
6556;DHT22;3311;48.32423000;14.29074500;2022-07-03T20:55:00;24.40;67.10
6556;DHT22;3311;48.32423000;14.29074500;2022-07-03T20:57:30;24.40;67.10
6556;DHT22;3311;48.32423000;14.29074500;2022-07-03T20:59:57;24.40;66.80
6556;DHT22;3311;48.32423000;14.29074500;2022-07-03T21:02:24;24.40;67.20
6556;DHT22;3311;48.32423000;14.29074500;2022-07-03T21:04:52;24.40;66.90
